Time;durP1;ratioP1;P1;durP2;ratioP2;P2;SDS_P1;SDS_P2;PMS_P1;PMS_P2;Temp;Humidity;BMP_temperature;BMP_pressure;BME280_temperature;BME280_humidity;BME280_pressure;Samples;Min_cycle;Max_cycle;Signal;HPM_P1;HPM_P2
2022/07/10 00:00:13;;;;;;;11.23;3.60;;;14.50;99.90;;;;;;4993899;28;20128;-67
2022/07/10 00:02:42;;;;;;;15.50;4.15;;;14.50;99.90;;;;;;4991537;28;20053;-67
2022/07/10 00:05:10;;;;;;;19.98;3.65;;;14.50;99.90;;;;;;4988911;28;20039;-67
2022/07/10 00:07:36;;;;;;;9.52;3.28;;;14.30;99.90;;;;;;4971211;28;20061;-67
2022/07/10 00:10:03;;;;;;;18.77;4.75;;;14.30;99.90;;;;;;4988627;28;20039;-67
2022/07/10 00:12:28;;;;;;;10.25;3.72;;;14.30;99.90;;;;;;4987606;28;20050;-67
2022/07/10 00:14:54;;;;;;;17.58;3.97;;;14.20;99.90;;;;;;4987649;28;20081;-67
2022/07/10 00:17:20;;;;;;;10.98;3.38;;;14.30;99.90;;;;;;4971507;28;20411;-67
2022/07/10 00:19:45;;;;;;;10.32;4.05;;;14.20;99.90;;;;;;4989248;28;20074;-67
2022/07/10 00:22:11;;;;;;;14.85;4.65;;;14.20;99.90;;;;;;4970447;28;20156;-67
2022/07/10 00:24:37;;;;;;;9.40;4.05;;;14.10;99.90;;;;;;4988086;28;20384;-67
2022/07/10 00:27:03;;;;;;;9.40;2.53;;;14.10;99.90;;;;;;4986453;28;20035;-67
2022/07/10 00:29:28;;;;;;;9.90;4.03;;;14.10;99.90;;;;;;4979318;28;20054;-67
2022/07/10 00:31:54;;;;;;;13.48;3.45;;;14.10;99.90;;;;;;4988243;28;20042;-67
2022/07/10 00:34:19;;;;;;;15.38;4.80;;;14.00;99.90;;;;;;4980039;28;20404;-67
2022/07/10 00:36:45;;;;;;;9.02;3.47;;;14.00;99.90;;;;;;4985016;28;20054;-67
2022/07/10 00:39:11;;;;;;;11.18;3.17;;;14.00;99.90;;;;;;4954074;28;20050;-67
2022/07/10 00:41:37;;;;;;;10.30;3.67;;;13.90;99.90;;;;;;4988066;28;20050;-67
2022/07/10 00:44:03;;;;;;;11.68;3.65;;;13.90;99.90;;;;;;4982093;28;20084;-67
2022/07/10 00:46:30;;;;;;;9.90;3.17;;;13.90;99.90;;;;;;4968098;28;20058;-67
2022/07/10 00:48:57;;;;;;;17.10;3.90;;;13.90;99.90;;;;;;4986022;28;20507;-67
2022/07/10 00:51:25;;;;;;;9.50;3.33;;;13.80;99.90;;;;;;4988752;28;20508;-67
2022/07/10 00:53:51;;;;;;;8.82;3.70;;;13.80;99.90;;;;;;4987857;28;20050;-67
2022/07/10 00:56:28;;;;;;;18.10;3.45;;;13.80;99.90;;;;;;5000158;28;20111;-67
2022/07/10 00:58:54;;;;;;;10.82;3.38;;;13.80;99.90;;;;;;4969844;28;20174;-67
2022/07/10 01:01:22;;;;;;;12.40;2.92;;;13.60;99.90;;;;;;4980071;28;20050;-67
2022/07/10 01:03:48;;;;;;;8.25;3.20;;;13.70;99.90;;;;;;4971046;28;20130;-67
2022/07/10 01:06:14;;;;;;;11.15;3.75;;;13.60;99.90;;;;;;4987770;28;20129;-67
2022/07/10 01:08:41;;;;;;;8.38;2.65;;;13.60;99.90;;;;;;4988390;28;20051;-67
2022/07/10 01:11:07;;;;;;;9.27;3.47;;;13.60;99.90;;;;;;4987786;28;20125;-67
2022/07/10 01:13:33;;;;;;;15.85;3.45;;;13.60;99.90;;;;;;4987328;28;20057;-67
2022/07/10 01:16:00;;;;;;;8.93;3.45;;;13.60;99.90;;;;;;4987732;28;20038;-67
2022/07/10 01:18:25;;;;;;;14.65;3.25;;;13.60;99.90;;;;;;4987821;28;20097;-67
2022/07/10 01:20:55;;;;;;;15.52;4.47;;;13.60;99.90;;;;;;4988274;28;20320;-67
2022/07/10 01:23:21;;;;;;;11.82;3.80;;;13.60;99.90;;;;;;4991130;28;20050;-67
2022/07/10 01:25:48;;;;;;;9.20;2.95;;;13.60;99.90;;;;;;4984482;28;20403;-67
2022/07/10 01:28:15;;;;;;;17.45;4.82;;;13.60;99.90;;;;;;4987679;28;20046;-67
2022/07/10 01:30:41;;;;;;;6.25;2.95;;;13.60;99.90;;;;;;4985083;28;20047;-67
2022/07/10 01:33:07;;;;;;;10.70;4.13;;;13.50;99.90;;;;;;4985283;28;20522;-67
2022/07/10 01:35:32;;;;;;;7.30;3.10;;;13.50;99.90;;;;;;4986454;28;20050;-67
2022/07/10 01:37:58;;;;;;;11.70;3.83;;;13.50;99.90;;;;;;4961556;28;20050;-67
2022/07/10 01:40:24;;;;;;;19.70;4.22;;;13.50;99.90;;;;;;4987873;28;20050;-67
2022/07/10 01:42:50;;;;;;;9.50;3.35;;;13.50;99.90;;;;;;4969572;28;20054;-67
2022/07/10 01:45:16;;;;;;;14.57;4.20;;;13.50;99.90;;;;;;4968049;28;20050;-67
2022/07/10 01:47:43;;;;;;;10.45;3.72;;;13.50;99.90;;;;;;4987692;28;20085;-67
2022/07/10 01:50:09;;;;;;;14.55;3.58;;;13.40;99.90;;;;;;4981837;28;20121;-67
2022/07/10 01:52:36;;;;;;;15.50;4.82;;;13.50;99.90;;;;;;4991398;28;20049;-67
2022/07/10 01:55:02;;;;;;;16.65;4.13;;;13.50;99.90;;;;;;4989440;28;20042;-67
2022/07/10 01:57:28;;;;;;;13.52;3.78;;;13.50;99.90;;;;;;4991189;28;20496;-67
2022/07/10 01:59:53;;;;;;;9.90;3.63;;;13.50;99.90;;;;;;4991261;28;20050;-67
2022/07/10 02:02:19;;;;;;;25.65;4.68;;;13.50;99.90;;;;;;4990964;28;20045;-67
2022/07/10 02:04:45;;;;;;;10.90;3.83;;;13.50;99.90;;;;;;4973086;28;20172;-68
2022/07/10 02:07:16;;;;;;;10.00;4.10;;;13.50;99.90;;;;;;4973279;28;20484;-68
2022/07/10 02:09:43;;;;;;;13.43;4.10;;;13.50;99.90;;;;;;4981874;28;20082;-67
2022/07/10 02:12:10;;;;;;;12.07;4.68;;;13.50;99.90;;;;;;4987245;28;20512;-67
2022/07/10 02:14:36;;;;;;;12.40;4.03;;;13.50;99.90;;;;;;4973276;28;20085;-68
2022/07/10 02:17:03;;;;;;;9.32;3.55;;;13.50;99.90;;;;;;4990695;28;20046;-67
2022/07/10 02:19:29;;;;;;;14.02;3.70;;;13.50;99.90;;;;;;4990754;28;20121;-68
2022/07/10 02:21:55;;;;;;;22.05;4.45;;;13.50;99.90;;;;;;4989697;28;20134;-68
2022/07/10 02:24:20;;;;;;;14.25;4.13;;;13.50;99.90;;;;;;4963876;28;20051;-67
2022/07/10 02:26:46;;;;;;;15.40;3.72;;;13.50;99.90;;;;;;4990510;28;20046;-67
2022/07/10 02:29:12;;;;;;;11.55;3.55;;;13.50;99.90;;;;;;4990671;28;20035;-67
2022/07/10 02:31:40;;;;;;;17.15;3.70;;;13.50;99.90;;;;;;4972900;28;20410;-68
2022/07/10 02:34:06;;;;;;;;;;;13.50;99.90;;;;;;4990966;28;20054;-68
2022/07/10 02:36:32;;;;;;;13.77;4.13;;;13.50;99.90;;;;;;4986756;28;19922;-67
2022/07/10 02:38:57;;;;;;;16.67;3.88;;;13.40;99.90;;;;;;4973634;28;20054;-67
2022/07/10 02:41:23;;;;;;;15.10;4.53;;;13.40;99.90;;;;;;4970462;28;20464;-67
2022/07/10 02:43:48;;;;;;;21.80;4.45;;;13.40;99.90;;;;;;4975592;28;20070;-67
2022/07/10 02:46:14;;;;;;;12.10;4.03;;;13.40;99.90;;;;;;4974000;28;20631;-67
2022/07/10 02:48:39;;;;;;;7.90;2.97;;;13.30;99.90;;;;;;4976450;28;20047;-67
2022/07/10 02:51:05;;;;;;;13.55;3.47;;;13.20;99.90;;;;;;4973345;28;20451;-67
2022/07/10 02:53:31;;;;;;;9.98;3.97;;;13.20;99.90;;;;;;4971431;28;20043;-67
2022/07/10 02:55:57;;;;;;;8.77;3.17;;;13.20;99.90;;;;;;4969674;28;20062;-67
2022/07/10 02:58:23;;;;;;;12.48;3.13;;;13.20;99.90;;;;;;4967304;28;20046;-68
2022/07/10 03:00:48;;;;;;;10.23;3.00;;;13.20;99.90;;;;;;4971258;28;20038;-67
2022/07/10 03:03:16;;;;;;;7.05;3.47;;;13.10;99.90;;;;;;4968967;28;20049;-67
2022/07/10 03:05:43;;;;;;;10.15;2.95;;;13.10;99.90;;;;;;4970480;28;20121;-67
2022/07/10 03:08:08;;;;;;;8.10;3.35;;;13.10;99.90;;;;;;4965825;28;20477;-68
2022/07/10 03:10:34;;;;;;;7.82;3.60;;;13.10;99.90;;;;;;4970646;28;20082;-68
2022/07/10 03:13:00;;;;;;;14.95;4.13;;;13.10;99.90;;;;;;4963045;28;20050;-67
2022/07/10 03:15:26;;;;;;;9.00;3.80;;;13.00;99.90;;;;;;4971608;28;20054;-67
2022/07/10 03:17:52;;;;;;;13.80;4.32;;;13.10;99.90;;;;;;4969215;28;20078;-67
2022/07/10 03:20:17;;;;;;;7.93;2.60;;;13.10;99.90;;;;;;4971042;28;20070;-67
2022/07/10 03:22:43;;;;;;;7.28;3.05;;;13.00;99.90;;;;;;4972097;28;20046;-67
2022/07/10 03:25:09;;;;;;;20.52;3.00;;;13.00;99.90;;;;;;4970943;28;20488;-67
2022/07/10 03:27:35;;;;;;;11.35;3.72;;;13.00;99.90;;;;;;4984086;28;20065;-68
2022/07/10 03:30:01;;;;;;;8.13;3.88;;;12.90;99.90;;;;;;4969571;28;20090;-68
2022/07/10 03:32:27;;;;;;;6.30;2.60;;;12.90;99.90;;;;;;4978939;28;20804;-67
2022/07/10 03:34:52;;;;;;;23.23;4.60;;;12.90;99.90;;;;;;4969508;28;20046;-68
2022/07/10 03:37:18;;;;;;;15.55;4.32;;;12.90;99.90;;;;;;4974893;28;20108;-68
2022/07/10 03:39:43;;;;;;;20.15;3.95;;;12.90;99.90;;;;;;4968332;28;20046;-68
2022/07/10 03:42:09;;;;;;;12.52;3.63;;;12.90;99.90;;;;;;4981861;28;20050;-67
2022/07/10 03:44:35;;;;;;;14.90;4.18;;;12.90;99.90;;;;;;4988521;28;20034;-68
2022/07/10 03:47:01;;;;;;;14.13;3.67;;;12.90;99.90;;;;;;4971847;28;20042;-68
2022/07/10 03:49:26;;;;;;;13.73;3.45;;;12.90;99.90;;;;;;4989104;28;20046;-68
2022/07/10 03:51:52;;;;;;;15.32;3.42;;;12.90;99.90;;;;;;4988710;28;20047;-67
2022/07/10 03:54:18;;;;;;;23.35;4.80;;;13.00;99.90;;;;;;4988861;28;20049;-67
2022/07/10 03:59:28;;;;;;;9.88;3.97;;;13.00;99.90;;;;;;4965421;28;20054;-68
2022/07/10 04:01:53;;;;;;;6.05;2.60;;;13.10;99.90;;;;;;4970984;28;20109;-68
2022/07/10 04:04:19;;;;;;;9.13;2.95;;;13.20;99.90;;;;;;4988916;28;20046;-68
2022/07/10 04:06:45;;;;;;;11.73;3.70;;;13.20;99.90;;;;;;4969302;28;20057;-69
2022/07/10 04:09:12;;;;;;;16.98;3.15;;;13.30;99.90;;;;;;4976573;28;20035;-68
2022/07/10 04:11:38;;;;;;;13.93;3.22;;;13.30;99.90;;;;;;4982641;28;20134;-68
2022/07/10 04:14:04;;;;;;;8.48;3.22;;;13.40;99.90;;;;;;4986585;28;20092;-65
2022/07/10 04:16:29;;;;;;;10.65;3.28;;;13.50;99.90;;;;;;4988474;28;20837;-67
2022/07/10 04:18:55;;;;;;;12.43;3.60;;;13.50;99.90;;;;;;4979398;28;20030;-66
2022/07/10 04:21:21;;;;;;;21.98;4.07;;;13.60;99.90;;;;;;4987691;28;20524;-66
2022/07/10 04:23:46;;;;;;;13.13;3.30;;;13.60;99.90;;;;;;4981973;28;20066;-66
2022/07/10 04:26:12;;;;;;;14.45;3.47;;;13.60;99.90;;;;;;4985743;28;20038;-66
2022/07/10 04:28:38;;;;;;;12.43;2.78;;;13.60;99.90;;;;;;4988126;28;20042;-66
2022/07/10 04:31:03;;;;;;;11.70;3.28;;;13.60;99.90;;;;;;4987677;28;20057;-66
2022/07/10 04:33:29;;;;;;;8.23;3.40;;;13.60;99.90;;;;;;4987979;28;20084;-66
2022/07/10 04:35:54;;;;;;;8.68;3.17;;;13.60;99.90;;;;;;4985702;28;20096;-67
2022/07/10 04:38:21;;;;;;;15.45;3.47;;;13.60;99.90;;;;;;4987087;28;20124;-67
2022/07/10 04:40:47;;;;;;;21.67;4.07;;;13.70;99.90;;;;;;4987307;28;20058;-67
2022/07/10 04:43:12;;;;;;;11.82;3.35;;;13.70;99.90;;;;;;4988237;28;20046;-67
2022/07/10 04:45:38;;;;;;;12.60;3.83;;;13.80;99.90;;;;;;4988239;28;20073;-67
2022/07/10 04:48:05;;;;;;;9.70;3.17;;;13.80;99.90;;;;;;4983865;28;20035;-66
2022/07/10 04:50:30;;;;;;;11.82;4.35;;;13.80;99.90;;;;;;4983340;28;20495;-67
2022/07/10 04:52:57;;;;;;;8.43;3.22;;;13.80;99.90;;;;;;4977471;28;20042;-67
2022/07/10 04:55:24;;;;;;;11.40;2.70;;;13.90;99.90;;;;;;4988229;28;20088;-67
2022/07/10 04:57:49;;;;;;;16.95;3.05;;;13.90;99.90;;;;;;4978867;28;20443;-67
2022/07/10 05:00:15;;;;;;;7.72;3.78;;;13.90;99.90;;;;;;4989052;28;20050;-67
2022/07/10 05:02:41;;;;;;;11.43;3.15;;;14.00;99.90;;;;;;4971543;28;20149;-67
2022/07/10 05:05:07;;;;;;;18.23;3.08;;;14.00;99.90;;;;;;4987889;28;20144;-66
2022/07/10 05:07:33;;;;;;;20.88;4.43;;;14.00;99.90;;;;;;4988272;28;20049;-67
2022/07/10 05:09:59;;;;;;;11.32;3.20;;;14.10;99.90;;;;;;4984490;28;20129;-67
2022/07/10 05:12:25;;;;;;;9.90;2.95;;;14.10;99.90;;;;;;4987040;28;20703;-67
2022/07/10 05:14:51;;;;;;;21.83;4.05;;;14.10;99.90;;;;;;4988687;28;20034;-68
2022/07/10 05:17:16;;;;;;;12.93;3.85;;;14.10;99.90;;;;;;4989174;28;20100;-66
2022/07/10 05:19:42;;;;;;;7.93;2.78;;;14.20;99.90;;;;;;4988081;28;20384;-64
2022/07/10 05:22:09;;;;;;;13.13;2.97;;;14.30;99.90;;;;;;4987966;28;20062;-67
2022/07/10 05:24:35;;;;;;;10.18;3.70;;;14.30;99.90;;;;;;4983169;28;20043;-67
2022/07/10 05:27:01;;;;;;;13.48;3.92;;;14.30;99.90;;;;;;4987652;28;20575;-67
2022/07/10 05:29:27;;;;;;;11.10;3.67;;;14.40;99.90;;;;;;4984526;28;20121;-66
2022/07/10 05:31:52;;;;;;;10.80;3.72;;;14.40;99.90;;;;;;4984904;28;20133;-66
2022/07/10 05:34:18;;;;;;;15.55;3.22;;;14.40;99.90;;;;;;4970360;28;20043;-67
2022/07/10 05:36:44;;;;;;;12.05;3.95;;;14.50;99.90;;;;;;4992034;28;20058;-67
2022/07/10 05:39:09;;;;;;;11.90;3.13;;;14.50;99.90;;;;;;4988213;28;20585;-67
2022/07/10 05:41:36;;;;;;;9.18;3.92;;;14.50;99.90;;;;;;4990337;28;20108;-67
2022/07/10 05:44:01;;;;;;;18.13;4.78;;;14.60;99.90;;;;;;4989298;28;20057;-67
2022/07/10 05:46:27;;;;;;;7.93;3.53;;;14.60;99.90;;;;;;4991532;28;20046;-67
2022/07/10 05:48:53;;;;;;;19.27;3.25;;;14.70;99.90;;;;;;4991993;28;20128;-67
2022/07/10 05:51:19;;;;;;;11.18;3.58;;;14.70;99.90;;;;;;4991492;28;20518;-67
2022/07/10 05:53:44;;;;;;;12.15;4.00;;;14.80;99.90;;;;;;4992432;28;20054;-67
2022/07/10 05:56:10;;;;;;;16.20;4.95;;;14.80;99.90;;;;;;4992336;28;20039;-67
2022/07/10 05:58:36;;;;;;;13.75;4.45;;;14.80;99.90;;;;;;4970487;28;20475;-67
2022/07/10 06:01:03;;;;;;;9.82;3.90;;;14.80;99.90;;;;;;4992504;28;20118;-66
2022/07/10 06:03:28;;;;;;;15.38;3.78;;;14.80;99.90;;;;;;4990980;28;20043;-67
2022/07/10 06:05:54;;;;;;;8.95;3.33;;;14.90;99.90;;;;;;4987859;28;20407;-67
2022/07/10 06:08:20;;;;;;;13.82;3.38;;;14.90;99.90;;;;;;4986094;28;20092;-67
2022/07/10 06:10:45;;;;;;;17.13;3.55;;;14.90;99.90;;;;;;4991562;28;20046;-66
2022/07/10 06:13:11;;;;;;;10.52;3.45;;;14.90;99.90;;;;;;4991752;28;20081;-66
2022/07/10 06:15:37;;;;;;;19.75;4.65;;;14.90;99.90;;;;;;4989616;28;20043;-66
2022/07/10 06:18:03;;;;;;;13.90;3.78;;;15.00;99.90;;;;;;5001223;28;20485;-66
2022/07/10 06:20:29;;;;;;;9.13;3.30;;;15.00;99.90;;;;;;4990937;28;20042;-67
2022/07/10 06:22:54;;;;;;;11.27;3.78;;;15.00;99.90;;;;;;4998568;28;20132;-67
2022/07/10 06:25:20;;;;;;;9.98;3.88;;;15.00;99.90;;;;;;4998971;28;20045;-66
2022/07/10 06:27:46;;;;;;;15.35;4.82;;;15.00;99.90;;;;;;4986118;28;20039;-66
2022/07/10 06:30:12;;;;;;;16.63;4.32;;;15.10;99.90;;;;;;4973011;28;20100;-67
2022/07/10 06:32:39;;;;;;;19.38;3.97;;;15.20;99.90;;;;;;4991167;28;20491;-67
2022/07/10 06:35:05;;;;;;;14.77;3.60;;;15.20;99.90;;;;;;4986002;28;20042;-67
2022/07/10 06:37:31;;;;;;;11.05;3.92;;;15.20;99.90;;;;;;4972033;28;20133;-66
2022/07/10 06:39:57;;;;;;;13.60;4.20;;;15.30;99.90;;;;;;4989628;28;20157;-66
2022/07/10 06:42:22;;;;;;;14.88;4.00;;;15.40;99.90;;;;;;4990093;28;20562;-66
2022/07/10 06:44:48;;;;;;;10.80;3.42;;;15.40;99.90;;;;;;4990685;28;20038;-66
2022/07/10 06:50:02;;;;;;;8.20;2.70;;;15.50;99.90;;;;;;4982506;28;20495;-67
2022/07/10 06:52:28;;;;;;;11.68;4.80;;;15.50;99.90;;;;;;4990064;28;20050;-67
2022/07/10 06:54:54;;;;;;;22.17;4.53;;;15.50;99.90;;;;;;4972849;28;20069;-66
2022/07/10 06:57:21;;;;;;;17.00;4.22;;;15.50;99.90;;;;;;4981650;28;20050;-67
2022/07/10 06:59:46;;;;;;;14.73;4.05;;;15.50;99.90;;;;;;4984409;28;20492;-67
2022/07/10 07:02:12;;;;;;;18.48;5.22;;;15.50;99.90;;;;;;4982757;28;20103;-67
2022/07/10 07:04:38;;;;;;;22.52;5.03;;;15.50;99.90;;;;;;4986639;28;20571;-67
2022/07/10 07:07:04;;;;;;;13.75;4.07;;;15.50;99.90;;;;;;4985519;28;20045;-67
2022/07/10 07:09:29;;;;;;;17.80;5.72;;;15.50;99.90;;;;;;4985698;28;20054;-67
2022/07/10 07:11:57;;;;;;;9.13;3.67;;;15.50;99.90;;;;;;4987777;28;20125;-67
2022/07/10 07:14:23;;;;;;;12.05;4.57;;;15.50;99.90;;;;;;4986749;28;20058;-67
2022/07/10 07:16:58;;;;;;;17.23;4.47;;;15.60;99.90;;;;;;4985479;28;20105;-67
2022/07/10 07:19:31;;;;;;;24.45;6.68;;;15.60;99.90;;;;;;4985904;28;20182;-67
2022/07/10 07:24:45;;;;;;;;;;;15.70;99.90;;;;;;4988665;28;20056;-68
2022/07/10 07:27:11;;;;;;;12.30;4.35;;;15.70;99.90;;;;;;4986699;28;19980;-68
2022/07/10 07:29:37;;;;;;;16.17;4.65;;;15.60;99.90;;;;;;4989270;28;20042;-67
2022/07/10 07:32:03;;;;;;;14.98;4.45;;;15.70;99.90;;;;;;4990030;28;20408;-67
2022/07/10 07:34:30;;;;;;;11.70;5.70;;;15.70;99.90;;;;;;4989444;28;20419;-67
2022/07/10 07:36:57;;;;;;;10.82;4.20;;;15.70;99.90;;;;;;4988708;28;20141;-66
2022/07/10 07:39:22;;;;;;;13.00;4.75;;;15.80;99.90;;;;;;4990982;28;20050;-66
2022/07/10 07:41:48;;;;;;;9.95;4.35;;;15.80;99.90;;;;;;4987574;28;20496;-66
2022/07/10 07:44:17;;;;;;;11.70;3.72;;;15.90;99.90;;;;;;4988922;28;20053;-66
2022/07/10 07:46:43;;;;;;;24.55;4.90;;;16.00;99.90;;;;;;4989618;28;20237;-66
2022/07/10 07:49:09;;;;;;;14.23;4.60;;;16.10;99.90;;;;;;4987637;28;20096;-66
2022/07/10 07:51:35;;;;;;;11.75;4.82;;;16.20;99.90;;;;;;4981265;28;20082;-66
2022/07/10 07:54:00;;;;;;;12.10;4.43;;;16.20;99.90;;;;;;4986289;28;20038;-66
2022/07/10 07:56:26;;;;;;;11.73;3.55;;;16.30;99.90;;;;;;4988782;28;20056;-66
2022/07/10 07:58:52;;;;;;;14.70;4.32;;;16.50;99.90;;;;;;4971617;28;20184;-66
2022/07/10 08:01:19;;;;;;;13.63;4.20;;;16.60;99.90;;;;;;4987312;28;20547;-66
2022/07/10 08:03:45;;;;;;;9.07;3.50;;;16.80;99.90;;;;;;4986341;28;20046;-66
2022/07/10 08:06:11;;;;;;;13.50;3.35;;;16.90;99.90;;;;;;4985584;28;20050;-67
2022/07/10 08:08:37;;;;;;;11.45;3.22;;;17.00;99.90;;;;;;4988027;28;20501;-66
2022/07/10 08:11:03;;;;;;;9.43;3.42;;;17.00;99.90;;;;;;4986239;28;20046;-67
2022/07/10 08:13:29;;;;;;;8.60;3.63;;;17.00;99.90;;;;;;4991477;28;20045;-67
2022/07/10 08:15:54;;;;;;;8.90;3.20;;;17.00;99.90;;;;;;4989168;28;20034;-68
2022/07/10 08:18:20;;;;;;;6.18;2.85;;;16.80;99.90;;;;;;4984243;28;20050;-67
2022/07/10 08:20:46;;;;;;;11.32;2.33;;;16.70;99.90;;;;;;4968051;28;20137;-67
2022/07/10 08:23:11;;;;;;;6.05;2.90;;;16.70;99.90;;;;;;4986062;28;20085;-67
2022/07/10 08:25:37;;;;;;;10.27;2.95;;;16.60;99.90;;;;;;4987017;28;20038;-68
2022/07/10 08:28:05;;;;;;;10.70;3.05;;;16.60;99.90;;;;;;4987628;28;20038;-67
2022/07/10 08:30:31;;;;;;;;;;;16.60;99.90;;;;;;4968542;28;20053;-67
2022/07/10 08:32:56;;;;;;;15.93;2.53;;;16.60;99.90;;;;;;4984038;28;19921;-67
2022/07/10 08:35:22;;;;;;;8.07;2.85;;;16.60;99.90;;;;;;4984438;28;20678;-68
2022/07/10 08:37:48;;;;;;;10.27;2.53;;;16.70;99.90;;;;;;4984729;28;20082;-67
2022/07/10 08:40:18;;;;;;;4.75;2.10;;;16.70;99.90;;;;;;4986791;28;20177;-67
2022/07/10 08:42:45;;;;;;;14.70;2.67;;;16.80;99.90;;;;;;4987231;28;20057;-67
2022/07/10 08:45:11;;;;;;;7.18;3.28;;;16.80;99.90;;;;;;4985851;28;20129;-67
2022/07/10 08:47:41;;;;;;;8.82;3.10;;;16.80;99.90;;;;;;4987398;28;20070;-67
2022/07/10 08:50:22;;;;;;;6.40;1.95;;;16.90;99.90;;;;;;4988050;28;20046;-66
2022/07/10 08:53:07;;;;;;;4.10;2.72;;;16.90;99.90;;;;;;4988392;28;20080;-67
2022/07/10 08:55:33;;;;;;;10.00;3.33;;;16.90;99.90;;;;;;4981181;28;20080;-67
2022/07/10 08:57:59;;;;;;;7.63;1.88;;;16.90;99.90;;;;;;4985512;28;20495;-67
2022/07/10 09:00:25;;;;;;;10.85;2.55;;;16.90;99.90;;;;;;4988700;28;20150;-67
2022/07/10 09:02:53;;;;;;;5.10;1.95;;;16.90;99.90;;;;;;4985254;28;20058;-67
2022/07/10 09:05:19;;;;;;;;;;;17.00;99.90;;;;;;4989237;28;20066;-66
2022/07/10 09:07:45;;;;;;;5.32;1.92;;;16.80;99.90;;;;;;4980897;28;19929;-67
2022/07/10 09:10:12;;;;;;;6.18;2.10;;;16.80;99.90;;;;;;4982067;28;20047;-67
2022/07/10 09:13:04;;;;;;;2.93;2.23;;;16.90;99.90;;;;;;4969528;28;20046;-67
2022/07/10 09:15:32;;;;;;;3.33;1.95;;;16.90;99.90;;;;;;4975695;28;20062;-67
2022/07/10 09:18:01;;;;;;;10.90;2.65;;;17.00;99.90;;;;;;4990440;28;20101;-67
2022/07/10 09:20:35;;;;;;;6.93;2.00;;;17.10;99.90;;;;;;4987938;28;20104;-67
2022/07/10 09:23:17;;;;;;;6.93;2.28;;;17.20;99.90;;;;;;4988005;28;20074;-67
2022/07/10 09:25:43;;;;;;;4.03;1.98;;;17.30;99.90;;;;;;4983512;28;20097;-68
2022/07/10 09:28:09;;;;;;;4.00;2.13;;;17.40;99.90;;;;;;4987922;28;20051;-68
2022/07/10 09:30:37;;;;;;;7.82;2.17;;;17.50;99.90;;;;;;4988123;28;20045;-67
2022/07/10 09:33:29;;;;;;;4.75;2.00;;;17.50;99.90;;;;;;4980268;28;20046;-67
2022/07/10 09:36:05;;;;;;;33.38;3.80;;;17.60;99.90;;;;;;4987988;28;20042;-68
2022/07/10 09:38:42;;;;;;;5.00;2.17;;;17.50;99.90;;;;;;4988827;28;20136;-68
2022/07/10 09:41:21;;;;;;;4.22;1.90;;;17.50;99.90;;;;;;4980902;28;20054;-68
2022/07/10 09:44:02;;;;;;;8.73;2.40;;;17.50;99.90;;;;;;4984315;28;20054;-68
2022/07/10 09:46:42;;;;;;;10.27;2.75;;;17.50;99.90;;;;;;4974608;28;20077;-66
2022/07/10 09:49:09;;;;;;;9.40;2.33;;;17.40;99.90;;;;;;4978168;28;20049;-65
2022/07/10 09:51:43;;;;;;;4.95;2.30;;;17.40;99.90;;;;;;4988454;28;20050;-66
2022/07/10 09:54:10;;;;;;;5.35;2.33;;;17.50;99.90;;;;;;4983012;28;20050;-65
2022/07/10 09:56:40;;;;;;;3.78;1.77;;;17.40;99.90;;;;;;4987898;28;20042;-66
2022/07/10 09:59:10;;;;;;;8.00;2.38;;;17.50;99.90;;;;;;4982584;28;20093;-65
2022/07/10 10:01:37;;;;;;;2.80;1.25;;;17.50;99.90;;;;;;4982660;28;20546;-65
2022/07/10 10:04:04;;;;;;;7.18;2.75;;;17.50;99.90;;;;;;4986159;28;20053;-65
2022/07/10 10:06:31;;;;;;;5.95;2.05;;;17.40;99.90;;;;;;4990334;28;20190;-64
2022/07/10 10:09:06;;;;;;;3.75;1.98;;;17.40;99.90;;;;;;4980934;28;20122;-65
2022/07/10 10:11:35;;;;;;;7.63;2.30;;;17.40;99.90;;;;;;4989702;28;20042;-66
2022/07/10 10:14:02;;;;;;;5.40;3.03;;;17.30;99.90;;;;;;4990042;28;20477;-64
2022/07/10 10:16:29;;;;;;;9.45;2.40;;;17.30;99.90;;;;;;4991533;28;20557;-65
2022/07/10 10:21:40;;;;;;;4.15;2.25;;;17.20;99.90;;;;;;4990581;28;20289;-65
2022/07/10 10:24:06;;;;;;;2.42;1.98;;;17.20;99.90;;;;;;4962905;28;20100;-66
2022/07/10 10:26:33;;;;;;;2.10;1.90;;;17.10;99.90;;;;;;4992102;28;20054;-65
2022/07/10 10:29:04;;;;;;;2.17;1.48;;;17.00;99.90;;;;;;4991894;28;20092;-65
2022/07/10 10:31:31;;;;;;;6.07;1.85;;;17.10;99.90;;;;;;4991635;28;20050;-66
2022/07/10 10:33:57;;;;;;;6.80;2.10;;;17.10;99.90;;;;;;4989778;28;20134;-65
2022/07/10 10:36:41;;;;;;;1.77;1.52;;;17.10;99.90;;;;;;4990853;28;20076;-65
2022/07/10 10:39:16;;;;;;;5.90;1.85;;;17.10;99.90;;;;;;4990792;28;20118;-65
2022/07/10 10:41:51;;;;;;;3.60;1.65;;;17.20;99.90;;;;;;4982051;28;20054;-65
2022/07/10 10:44:16;;;;;;;1.95;1.73;;;17.20;99.90;;;;;;4987060;28;20558;-65
2022/07/10 10:46:56;;;;;;;3.55;2.00;;;17.20;99.90;;;;;;4988174;28;20125;-65
2022/07/10 10:49:27;;;;;;;5.00;2.13;;;17.30;99.90;;;;;;4986451;28;20053;-65
2022/07/10 10:52:03;;;;;;;4.63;2.03;;;17.20;99.90;;;;;;4984006;28;20594;-65
2022/07/10 10:54:30;;;;;;;9.10;1.83;;;17.20;99.90;;;;;;4985994;28;20415;-66
2022/07/10 10:57:16;;;;;;;3.13;2.03;;;17.20;99.90;;;;;;4990063;28;20092;-66
2022/07/10 10:59:52;;;;;;;1.58;1.48;;;17.20;99.90;;;;;;4987331;28;20077;-65
2022/07/10 11:02:25;;;;;;;2.28;1.70;;;17.20;99.90;;;;;;4968472;28;20045;-66
2022/07/10 11:04:51;;;;;;;3.20;2.08;;;17.20;99.90;;;;;;4985686;28;20050;-67
2022/07/10 11:07:54;;;;;;;5.18;2.58;;;17.20;99.90;;;;;;4987516;28;20046;-71
2022/07/10 11:10:26;;;;;;;5.05;1.98;;;17.30;99.90;;;;;;4978035;28;20057;-71
2022/07/10 11:13:11;;;;;;;2.95;1.75;;;17.30;99.90;;;;;;4987680;28;20748;-71
2022/07/10 11:15:42;;;;;;;7.88;3.10;;;17.50;99.90;;;;;;4968798;28;20046;-72
2022/07/10 11:18:14;;;;;;;4.78;2.70;;;17.50;99.90;;;;;;4970455;28;20050;-72
2022/07/10 11:20:42;;;;;;;5.70;3.15;;;17.50;99.90;;;;;;4986519;28;20069;-72
2022/07/10 11:23:17;;;;;;;9.23;3.35;;;17.50;99.90;;;;;;4981436;28;20125;-72
2022/07/10 11:26:07;;;;;;;8.98;3.63;;;17.40;99.90;;;;;;4970256;28;20054;-72
2022/07/10 11:28:52;;;;;;;12.43;4.18;;;17.30;99.90;;;;;;4971430;28;20057;-72
2022/07/10 11:31:18;;;;;;;5.82;3.75;;;17.10;99.90;;;;;;4965313;28;20042;-72
2022/07/10 11:33:48;;;;;;;8.07;4.22;;;17.10;99.90;;;;;;4978211;28;20491;-72
2022/07/10 11:36:18;;;;;;;6.00;4.43;;;17.10;99.90;;;;;;4963459;28;20053;-72
2022/07/10 11:38:45;;;;;;;8.25;4.38;;;17.10;99.90;;;;;;4969647;28;20046;-71
2022/07/10 11:41:16;;;;;;;15.18;4.40;;;17.00;99.90;;;;;;4988230;28;20526;-72
2022/07/10 11:44:01;;;;;;;13.23;4.53;;;17.00;99.90;;;;;;4960619;28;20090;-72
2022/07/10 11:46:32;;;;;;;8.43;4.18;;;17.00;99.90;;;;;;4964788;28;20042;-72
2022/07/10 11:49:02;;;;;;;11.20;5.13;;;17.00;99.90;;;;;;4984795;28;20061;-72
2022/07/10 11:51:34;;;;;;;7.72;4.28;;;17.10;99.90;;;;;;4989115;28;20093;-72
2022/07/10 11:54:02;;;;;;;8.85;4.28;;;17.20;99.90;;;;;;4972023;28;20042;-72
2022/07/10 11:56:32;;;;;;;7.95;5.15;;;17.20;99.90;;;;;;4971541;28;20145;-72
2022/07/10 11:59:03;;;;;;;10.48;4.85;;;17.20;99.90;;;;;;4986396;28;20042;-72
2022/07/10 12:01:34;;;;;;;13.20;4.45;;;17.40;99.90;;;;;;4986943;28;20053;-72
2022/07/10 12:04:03;;;;;;;15.43;6.05;;;17.50;99.90;;;;;;4989016;28;20069;-71
2022/07/10 12:06:35;;;;;;;10.32;5.05;;;17.60;99.90;;;;;;4988016;28;20086;-71
2022/07/10 12:09:12;;;;;;;15.90;5.63;;;17.80;99.90;;;;;;4978145;28;20050;-71
2022/07/10 12:11:38;;;;;;;20.85;6.00;;;17.90;99.90;;;;;;4971439;28;20431;-71
2022/07/10 12:14:18;;;;;;;9.18;5.28;;;18.00;99.90;;;;;;4967799;28;20050;-71
2022/07/10 12:16:48;;;;;;;5.70;4.55;;;18.00;99.90;;;;;;4984057;28;20059;-71
2022/07/10 12:19:16;;;;;;;11.15;3.88;;;17.90;99.90;;;;;;4971325;28;20122;-72
2022/07/10 12:21:43;;;;;;;;;;;17.80;99.90;;;;;;4971341;28;20072;-72
2022/07/10 12:24:09;;;;;;;8.07;5.05;;;17.60;99.90;;;;;;4987471;28;20012;-71
2022/07/10 12:26:42;;;;;;;9.90;5.07;;;17.60;99.90;;;;;;4988530;28;20057;-72
2022/07/10 12:29:19;;;;;;;6.78;3.90;;;17.70;99.90;;;;;;4970796;28;20129;-71
2022/07/10 12:31:46;;;;;;;8.55;4.82;;;17.70;99.90;;;;;;4988216;28;20080;-72
2022/07/10 12:34:14;;;;;;;7.77;4.13;;;17.80;99.90;;;;;;4970193;28;20058;-72
2022/07/10 12:36:51;;;;;;;8.40;4.10;;;17.80;99.90;;;;;;4970461;28;20790;-72
2022/07/10 12:39:19;;;;;;;5.78;4.47;;;17.90;99.90;;;;;;4965478;28;20054;-72
2022/07/10 12:41:56;;;;;;;11.98;4.35;;;18.00;99.90;;;;;;4970534;28;20049;-71
2022/07/10 12:44:43;;;;;;;13.07;4.57;;;18.00;99.90;;;;;;4986173;28;20046;-64
2022/07/10 12:47:11;;;;;;;6.72;4.13;;;17.90;99.90;;;;;;4987392;28;20038;-64
2022/07/10 12:50:05;;;;;;;8.00;4.20;;;17.90;99.90;;;;;;4984872;28;20046;-65
2022/07/10 12:52:35;;;;;;;5.28;4.18;;;17.90;99.90;;;;;;4988299;28;20053;-65
2022/07/10 12:55:25;;;;;;;7.07;3.35;;;17.70;99.90;;;;;;4982341;28;20050;-65
2022/07/10 12:57:55;;;;;;;10.48;4.85;;;17.70;99.90;;;;;;4986426;28;20046;-64